Terminal Aerodrome Forecast
Issued by NWS

Home | Current Version | Previous Version | Text Only | Print | Product List | Glossary On
Versions: 1 2 3 4 5 6 7 8 9 10 11 12 13 14 15 16 17
000
FTUS46 KSGX 222337
TAFSNA
TAF
KSNA 222337Z 2300/2324 21009KT P6SM SCT012
     FM230300 VRB04KT 5SM BR OVC009
     FM231200 VRB04KT 3SM BR OVC007
     FM231700 VRB04KT P6SM BKN010
     FM231900 21010KT P6SM FEW012=

USA.gov is the U.S. government's official web portal to all federal, state and local government web resources and services.